EDNYEDJA

Guest
Details From EDNY - Friedrichshafen
To EDJA - MEMMINGEN ALLGAU
Flight Number -
Tags generated
Created
Modified
Stats Distance 35 nm / 65 km
Max Altitude 2,600 ft / 792 m
Waypoints 3
Social Downloads 0
Likes 0
Share VATSIM

Download

Looking for another format? Having issues loading an existing format? Contact us
Advertisement - Login to hide

Notes

Basic altitude profile: - Ascent Rate: 2500ft/min - Ascent Speed: 250kts - Cruise Altitude: 35000ft - Cruise Speed: 420kts - Descent Rate: 1500ft/min - Descent Speed: 250kts Options: - Use NATs: yes - Use PACOTS: yes - Use low airways: no - Use high airways: yes

Route

EDNY RAVED EDJA

ID Type Via Altitude Latitude Longitude Leg Dist Tot Dist Heading (true) Name
O EDNY APT - 0 ft / 0 m 47.67089˚ 9.50818˚ - 0 nm - Friedrichshafen
RAVED FIX - 2,600 ft / 792 m 47.72917˚ 9.66944˚ 7 nm 7 nm 62° / 62° -
O EDJA APT - 0 ft / 0 m 47.98876˚ 10.23950˚ 27 nm 35 nm 56° / 56° MEMMINGEN ALLGAU

Altitude Profile

Advertisement - Login to hide

EDNY

Details ICAO EDNY (FDH)
Name Friedrichshafen
Region Germany - Civil
Timezone Europe/Berlin (UTC+1.0)
Stats Elevation 1,367 ft / 417 m (AMSL)
Location 47.670891° 9.508175°
Runways 2
Magnetic Variation 2.587° E

METAR

EDNY 180450Z 22010KT 9999 BKN028 OVC096 01/M04 Q1023

Decode

TAF

TAF EDNY 172300Z 1800/1824 VRB03KT 9999 FEW015 BKN030 BECMG 1805/1807 4000 -SN BKN012 TEMPO 1808/1813 1200 SN VV004 BECMG 1815/1817 6000 BKN015 BECMG 1818/1820 3000 BR

Decode

Departure Runways

ID Width Length Bearing (true) Bearing (mag) Surface Threshold Offset Overrun Length
06 148 ft / 45 m 7,738 ft / 2,359 m 60.02° 57.43° Asphalt 869 ft / 265 m 0 ft / 0 m
06L 92 ft / 28 m 3,167 ft / 965 m 60.04° 57.45° Grass 0 ft / 0 m 0 ft / 0 m
24 148 ft / 45 m 7,738 ft / 2,359 m 240.04° 237.45° Asphalt 676 ft / 206 m 89 ft / 27 m
24R 92 ft / 28 m 3,167 ft / 965 m 240.04° 237.45° Grass 0 ft / 0 m 0 ft / 0 m

EDJA

Details ICAO EDJA (FMM)
Name MEMMINGEN ALLGAU
Region Germany - Civil
Timezone Europe/Berlin (UTC+1.0)
Stats Elevation 2,077 ft / 633 m (AMSL)
Location 47.988757° 10.239502°
Runways 1
Magnetic Variation 2.773° E

METAR

EDJA 180450Z 21011KT CAVOK M02/M04 Q1021

Decode

TAF

Not found

Destination Runways

ID Width Length Bearing (true) Bearing (mag) Surface Threshold Offset Overrun Length
06 98 ft / 30 m 9,762 ft / 2,975 m 57.91° 55.14° Asphalt 953 ft / 290 m 0 ft / 0 m
24 98 ft / 30 m 9,762 ft / 2,975 m 237.94° 235.17° Asphalt 953 ft / 290 m 0 ft / 0 m

Approach Navaids

Runway Type Ident Frequency Range Bearing (true) Bearing (mag) Slope Elevation
24 Localiser IAMW 110.10 MHz 18 nm / 33 km 239.25° 236.48° - 0 ft / 0 m (AMSL)
24 Glidescope IAMW 110.10 MHz 18 nm / 33 km 237.44° 234.67° 3.00° 2,050 ft / 625 m (AMSL)
24 DME IAMW 110.10 MHz 25 nm / 46 km - - - 2,064 ft / 629 m (AMSL)

Popular Alternatives